Time;durP1;ratioP1;P1;durP2;ratioP2;P2;SDS_P1;SDS_P2;PMS_P1;PMS_P2;Temp;Humidity;BMP_temperature;BMP_pressure;BME280_temperature;BME280_humidity;BME280_pressure;Samples;Min_cycle;Max_cycle;Signal;HPM_P1;HPM_P2
2023/01/24 00:02:13;;;;;;;3.30;3.00;;;;;;;17.34;42.06;103852.72;5027429;28;20048;-58
2023/01/24 00:04:38;;;;;;;3.45;3.15;;;;;;;17.35;42.09;103851.75;5027141;28;20030;-59
2023/01/24 00:07:03;;;;;;;3.63;3.00;;;;;;;17.35;42.03;103851.75;5027565;28;20025;-59
2023/01/24 00:09:29;;;;;;;3.97;3.50;;;;;;;17.34;42.11;103843.78;5027164;28;20041;-59
2023/01/24 00:11:54;;;;;;;3.60;3.30;;;;;;;17.35;42.01;103850.88;5027110;28;20022;-59
2023/01/24 00:14:19;;;;;;;3.30;3.00;;;;;;;17.33;42.12;103848.31;5027539;28;20037;-59
2023/01/24 00:16:44;;;;;;;3.30;3.00;;;;;;;17.32;42.25;103846.53;5026811;28;20044;-59
2023/01/24 00:19:10;;;;;;;3.55;3.20;;;;;;;17.32;42.19;103840.28;4998336;28;20034;-59
2023/01/24 00:21:35;;;;;;;3.78;3.45;;;;;;;17.30;42.17;103835.00;5017655;28;20089;-56
2023/01/24 00:24:00;;;;;;;4.10;3.50;;;;;;;17.30;42.04;103843.09;5026779;28;20449;-59
2023/01/24 00:26:26;;;;;;;3.45;3.15;;;;;;;17.30;42.11;103843.09;5026759;28;20034;-59
2023/01/24 00:28:51;;;;;;;3.03;2.72;;;;;;;17.30;42.26;103844.91;5026845;28;20028;-59
2023/01/24 00:31:16;;;;;;;3.90;3.50;;;;;;;17.29;42.26;103846.72;5027053;28;20058;-59
2023/01/24 00:33:42;;;;;;;3.42;3.10;;;;;;;17.28;42.25;103834.22;5026664;28;20032;-59
2023/01/24 00:36:08;;;;;;;3.88;3.45;;;;;;;17.29;42.02;103843.16;5026882;28;20029;-59
2023/01/24 00:38:33;;;;;;;3.75;3.08;;;;;;;17.28;42.19;103847.66;5026890;28;20076;-59
2023/01/24 00:40:58;;;;;;;3.42;3.13;;;;;;;17.28;42.38;103844.13;5026517;28;20049;-57
2023/01/24 00:43:26;;;;;;;3.13;2.90;;;;;;;17.27;42.12;103840.56;5026841;28;20057;-59
2023/01/24 00:45:51;;;;;;;3.28;2.97;;;;;;;17.27;42.19;103839.69;5026619;28;20026;-59
2023/01/24 00:48:16;;;;;;;3.92;3.40;;;;;;;17.26;42.29;103837.97;5026221;28;20041;-59
2023/01/24 00:50:42;;;;;;;3.63;3.33;;;;;;;17.24;42.01;103830.84;5026557;28;20026;-59
2023/01/24 00:53:07;;;;;;;3.20;2.90;;;;;;;17.22;42.06;103818.44;5026624;28;20033;-59
2023/01/24 00:55:33;;;;;;;3.78;3.45;;;;;;;17.24;42.10;103833.53;5026481;28;20053;-59
2023/01/24 00:57:58;;;;;;;3.33;3.03;;;;;;;17.23;41.91;103826.41;5026113;28;20434;-59
2023/01/24 01:00:24;;;;;;;3.45;3.15;;;;;;;17.19;42.06;103822.16;5026433;28;20040;-59
2023/01/24 01:02:50;;;;;;;3.03;2.75;;;;;;;17.22;42.26;103829.19;5026362;28;20053;-59
2023/01/24 01:05:16;;;;;;;3.03;2.60;;;;;;;17.20;42.09;103826.59;5026313;28;20036;-59
2023/01/24 01:07:41;;;;;;;3.88;3.45;;;;;;;17.19;42.10;103830.22;5026298;28;20168;-59
2023/01/24 01:10:08;;;;;;;3.08;2.78;;;;;;;17.21;42.17;103833.72;5025964;28;20026;-59
2023/01/24 01:12:33;;;;;;;4.53;3.40;;;;;;;17.21;42.08;103836.41;5007739;28;20446;-59
2023/01/24 01:14:58;;;;;;;3.72;2.95;;;;;;;17.22;42.10;103837.28;5026230;28;20090;-59
2023/01/24 01:17:24;;;;;;;3.88;3.13;;;;;;;17.19;41.92;103830.22;5025896;28;20026;-59
2023/01/24 01:19:52;;;;;;;4.03;3.15;;;;;;;17.20;42.22;103837.38;5025935;28;20418;-59
2023/01/24 01:22:18;;;;;;;3.63;3.30;;;;;;;17.20;42.09;103832.00;5009777;28;20041;-59
2023/01/24 01:24:43;;;;;;;3.70;3.10;;;;;;;17.17;42.25;103823.22;4988855;28;20033;-59
2023/01/24 01:27:08;;;;;;;3.70;3.00;;;;;;;17.16;42.12;103835.81;5006121;28;20089;-59
2023/01/24 01:29:34;;;;;;;3.08;2.78;;;;;;;17.17;42.03;103832.16;5006327;28;20029;-59
2023/01/24 01:31:59;;;;;;;3.67;3.38;;;;;;;17.17;42.12;103832.16;5005985;28;20022;-59
2023/01/24 01:34:24;;;;;;;4.15;3.30;;;;;;;17.16;42.26;103832.22;5005964;28;20093;-59
2023/01/24 01:36:49;;;;;;;4.18;3.60;;;;;;;17.17;42.27;103836.66;5005967;28;20026;-59
2023/01/24 01:39:15;;;;;;;3.38;3.03;;;;;;;17.15;42.05;103834.03;5005966;28;20022;-59
2023/01/24 01:41:40;;;;;;;3.72;3.42;;;;;;;17.16;42.16;103834.91;4988420;28;20411;-59
2023/01/24 01:44:40;;;;;;;3.60;3.30;;;;;;;17.15;42.02;103830.50;5005963;28;20030;-59
2023/01/24 01:47:23;;;;;;;3.70;3.40;;;;;;;17.14;42.02;103826.94;4999730;28;20077;-59
2023/01/24 01:50:00;;;;;;;3.90;3.50;;;;;;;17.13;42.28;103821.66;5025225;28;20038;-59
2023/01/24 01:52:27;;;;;;;3.42;3.10;;;;;;;17.14;42.16;103818.00;5007788;28;20064;-59
2023/01/24 01:54:57;;;;;;;3.53;3.22;;;;;;;17.12;42.01;103818.09;5025226;28;20029;-59
2023/01/24 01:57:27;;;;;;;3.20;2.90;;;;;;;17.12;42.05;103819.91;5025175;28;20033;-59
2023/01/24 01:59:58;;;;;;;3.85;3.22;;;;;;;17.11;41.95;103824.41;5007562;28;20423;-59
2023/01/24 02:02:23;;;;;;;3.40;3.10;;;;;;;17.11;42.08;103824.41;5007772;28;20026;-59
2023/01/24 02:04:55;;;;;;;4.10;3.70;;;;;;;17.11;41.95;103827.09;5024841;28;20469;-59
2023/01/24 02:07:30;;;;;;;3.15;2.80;;;;;;;17.07;41.93;103827.34;5007450;28;20037;-59
2023/01/24 02:09:56;;;;;;;3.95;3.28;;;;;;;17.10;41.99;103819.13;5025199;28;20026;-59
2023/01/24 02:12:24;;;;;;;3.88;3.00;;;;;;;17.09;42.05;103826.34;5024847;28;20072;-59
2023/01/24 02:17:39;;;;;;;3.35;3.05;;;;;;;17.04;42.28;103820.34;5010122;28;20045;-59
2023/01/24 02:20:09;;;;;;;3.40;3.10;;;;;;;17.09;42.13;103825.47;5007617;28;20029;-59
2023/01/24 02:23:02;;;;;;;3.25;2.95;;;;;;;17.06;42.04;103815.75;5024929;28;20054;-59
2023/01/24 02:25:37;;;;;;;3.50;3.20;;;;;;;17.07;42.07;103822.84;5010919;28;20121;-59
2023/01/24 02:28:02;;;;;;;3.60;3.28;;;;;;;17.08;42.03;103829.13;5007195;28;20029;-58
2023/01/24 02:30:28;;;;;;;3.40;3.00;;;;;;;17.06;41.90;103829.19;5024903;28;20068;-58
2023/01/24 02:32:53;;;;;;;3.83;3.00;;;;;;;17.06;42.03;103828.31;5024774;28;20036;-59
2023/01/24 02:35:30;;;;;;;4.68;3.40;;;;;;;17.06;42.00;103831.88;5024618;28;20029;-59
2023/01/24 02:37:58;;;;;;;3.80;3.08;;;;;;;17.06;42.04;103822.94;5007376;28;20037;-59
2023/01/24 02:40:24;;;;;;;3.45;3.08;;;;;;;17.06;42.14;103821.13;5006931;28;20056;-59
2023/01/24 02:42:50;;;;;;;3.80;3.40;;;;;;;17.06;42.06;103828.31;5007013;28;20061;-59
2023/01/24 02:45:25;;;;;;;3.88;3.53;;;;;;;17.06;41.84;103826.50;5024867;28;20026;-58
2023/01/24 02:47:52;;;;;;;3.20;2.90;;;;;;;17.04;41.99;103820.34;5024794;28;20030;-59
2023/01/24 02:50:19;;;;;;;3.92;3.42;;;;;;;17.04;41.86;103820.34;5024703;28;20026;-59
2023/01/24 02:55:30;;;;;;;3.42;3.13;;;;;;;17.04;42.11;103814.13;5024551;28;20033;-59
2023/01/24 02:58:05;;;;;;;4.22;3.33;;;;;;;17.04;41.76;103827.56;5024536;28;20025;-59
2023/01/24 03:00:32;;;;;;;3.65;3.35;;;;;;;17.02;42.02;103816.88;5024476;28;20037;-59
2023/01/24 03:02:58;;;;;;;3.67;3.38;;;;;;;17.02;41.95;103811.50;5024585;28;20089;-59
2023/01/24 03:05:23;;;;;;;3.80;3.50;;;;;;;17.04;41.81;103814.13;5024447;28;20026;-59
2023/01/24 03:07:49;;;;;;;3.38;3.08;;;;;;;17.01;42.03;103806.22;5024443;28;20309;-59
2023/01/24 03:10:16;;;;;;;4.07;3.53;;;;;;;17.02;41.87;103807.94;5024584;28;20030;-59
2023/01/24 03:34:45;;;;;;;4.07;3.67;;;;;;;16.99;41.95;103803.59;5024179;28;20053;-59
2023/01/24 03:37:10;;;;;;;3.53;3.22;;;;;;;16.95;41.78;103802.91;5026482;28;20038;-59
2023/01/24 03:39:58;;;;;;;4.20;3.80;;;;;;;16.97;41.97;103802.81;5027554;28;20025;-59
2023/01/24 03:42:25;;;;;;;3.97;3.58;;;;;;;16.96;42.10;103807.34;5027624;28;20046;-59
2023/01/24 03:44:50;;;;;;;4.40;3.90;;;;;;;16.97;41.83;103802.81;5027958;28;20109;-59
2023/01/24 03:47:16;;;;;;;3.60;3.30;;;;;;;16.97;41.86;103810.88;5027812;28;20026;-59
2023/01/24 03:52:28;;;;;;;3.80;3.50;;;;;;;16.95;42.05;103810.97;5027594;28;20029;-59
2023/01/24 03:54:58;;;;;;;4.38;3.72;;;;;;;16.93;41.78;103812.00;5027205;28;20026;-59
2023/01/24 03:57:23;;;;;;;4.13;3.72;;;;;;;16.90;41.70;103801.41;5027678;28;20058;-58
2023/01/24 03:59:49;;;;;;;4.10;3.72;;;;;;;16.95;41.97;103818.19;5027659;28;20077;-59
2023/01/24 04:02:15;;;;;;;4.05;3.65;;;;;;;16.95;41.94;103815.50;5027884;28;20691;-57
2023/01/24 04:07:24;;;;;;;4.25;3.85;;;;;;;16.95;42.04;103820.88;5027468;28;20037;-59
2023/01/24 04:09:49;;;;;;;3.90;3.50;;;;;;;16.94;41.91;103829.84;5027534;28;20029;-59
2023/01/24 04:12:14;;;;;;;4.30;3.88;;;;;;;16.95;41.72;103826.25;5027524;28;20037;-59
2023/01/24 04:14:39;;;;;;;4.45;3.80;;;;;;;16.94;41.94;103822.66;5027391;28;20022;-59
2023/01/24 04:17:04;;;;;;;4.13;3.80;;;;;;;16.95;41.93;103826.25;5027626;28;20053;-59
2023/01/24 04:19:30;;;;;;;4.40;4.00;;;;;;;16.95;41.96;103835.16;5027282;28;20081;-59
2023/01/24 04:21:57;;;;;;;4.68;3.67;;;;;;;16.94;41.78;103829.84;5026946;28;20659;-59
2023/01/24 04:24:22;;;;;;;5.10;3.70;;;;;;;16.93;41.79;103836.19;5026749;28;20060;-59
2023/01/24 04:26:48;;;;;;;4.75;3.97;;;;;;;16.94;41.87;103840.63;5026877;28;20049;-59
2023/01/24 04:29:13;;;;;;;3.80;3.40;;;;;;;16.93;41.75;103831.69;5026884;28;20086;-59
2023/01/24 04:31:38;;;;;;;3.72;3.42;;;;;;;16.94;41.67;103835.22;5026926;28;20037;-60
2023/01/24 04:34:03;;;;;;;4.18;3.78;;;;;;;16.93;42.03;103833.50;5026669;28;20030;-59
2023/01/24 04:36:29;;;;;;;4.05;3.63;;;;;;;16.93;41.91;103834.38;5026564;28;20034;-60
2023/01/24 04:38:55;;;;;;;4.57;4.18;;;;;;;16.93;41.85;103833.50;5026611;28;20022;-60
2023/01/24 04:41:20;;;;;;;4.05;3.67;;;;;;;16.92;41.87;103832.66;5026378;28;20050;-59
2023/01/24 04:43:45;;;;;;;4.32;3.92;;;;;;;16.93;41.85;103830.81;5026719;28;20022;-59
2023/01/24 04:46:10;;;;;;;4.93;4.05;;;;;;;16.93;41.84;103834.38;5018010;28;20049;-58
2023/01/24 04:48:35;;;;;;;4.30;3.90;;;;;;;16.92;41.86;103829.97;5020740;28;20034;-59
2023/01/24 04:51:01;;;;;;;4.25;3.80;;;;;;;16.87;41.82;103820.41;5006400;28;20061;-59
2023/01/24 04:53:27;;;;;;;4.93;4.53;;;;;;;16.92;42.00;103831.78;5020607;28;20032;-59
2023/01/24 04:55:52;;;;;;;3.83;3.42;;;;;;;16.94;41.75;103832.56;5012663;28;20018;-60
2023/01/24 04:58:17;;;;;;;4.50;4.00;;;;;;;16.92;41.75;103839.84;5006706;28;20049;-59
2023/01/24 05:00:43;;;;;;;3.70;3.40;;;;;;;16.91;41.86;103838.97;5006448;28;20035;-59
2023/01/24 05:03:08;;;;;;;4.43;3.95;;;;;;;16.92;41.78;103835.34;5006841;28;20046;-59
2023/01/24 05:05:33;;;;;;;4.28;3.88;;;;;;;16.93;42.13;103838.88;5010001;28;20542;-59
2023/01/24 05:07:59;;;;;;;4.32;3.92;;;;;;;16.86;41.82;103832.09;5025813;28;20036;-59
2023/01/24 05:10:24;;;;;;;4.25;3.85;;;;;;;16.93;41.98;103837.06;5019216;28;20122;-60
2023/01/24 05:12:49;;;;;;;4.43;4.05;;;;;;;16.94;41.88;103835.22;5018772;28;20034;-60
2023/01/24 05:15:14;;;;;;;4.93;4.43;;;;;;;16.93;42.65;103833.50;5006875;28;20061;-59
2023/01/24 05:17:43;;;;;;;4.55;4.15;;;;;;;16.95;43.03;103834.31;5016663;28;20025;-59
2023/01/24 05:20:09;;;;;;;4.57;4.18;;;;;;;16.94;43.07;103836.09;5021576;28;20037;-59
2023/01/24 05:22:34;;;;;;;4.18;3.83;;;;;;;16.96;43.42;103839.59;5019353;28;20030;-59
2023/01/24 05:25:00;;;;;;;4.53;4.13;;;;;;;16.98;43.42;103843.03;5020900;28;20025;-56
2023/01/24 05:27:25;;;;;;;4.25;3.90;;;;;;;16.99;43.39;103842.13;5015589;28;20024;-59
2023/01/24 05:29:50;;;;;;;4.72;4.07;;;;;;;17.01;43.38;103847.41;5020804;28;20036;-59
2023/01/24 05:32:16;;;;;;;4.88;4.38;;;;;;;17.01;43.67;103843.84;5022252;28;20475;-59
2023/01/24 05:34:41;;;;;;;4.78;4.38;;;;;;;17.03;43.27;103845.47;5018017;28;20116;-58
2023/01/24 05:37:06;;;;;;;4.80;4.40;;;;;;;17.04;43.70;103846.38;5009632;28;20329;-59
2023/01/24 05:39:31;;;;;;;4.43;4.03;;;;;;;17.04;43.73;103843.69;5017004;28;20622;-56
2023/01/24 05:41:57;;;;;;;4.55;4.15;;;;;;;17.03;43.68;103850.84;5022385;28;20129;-54
2023/01/24 05:44:22;;;;;;;4.80;4.32;;;;;;;17.02;43.75;103845.56;5008420;28;20033;-58
2023/01/24 05:46:47;;;;;;;5.13;4.63;;;;;;;17.05;43.77;103853.47;5007405;28;20077;-60
2023/01/24 05:49:12;;;;;;;4.22;3.83;;;;;;;17.05;43.63;103842.72;5021947;28;20032;-59
2023/01/24 05:51:38;;;;;;;4.97;4.28;;;;;;;17.05;43.51;103848.09;5014964;28;20057;-59
2023/01/24 05:54:03;;;;;;;4.40;4.00;;;;;;;17.05;43.91;103851.66;5019167;28;20090;-60
2023/01/24 05:56:28;;;;;;;5.43;4.90;;;;;;;17.05;43.82;103846.28;5011353;28;20388;-59
2023/01/24 05:58:54;;;;;;;5.00;4.47;;;;;;;17.06;43.66;103847.13;5023875;28;20032;-60
2023/01/24 06:01:21;;;;;;;5.00;4.43;;;;;;;17.05;43.85;103848.97;5023723;28;20123;-59
2023/01/24 06:03:48;;;;;;;5.38;4.88;;;;;;;17.06;43.80;103852.50;5019493;28;20022;-57
2023/01/24 06:06:16;;;;;;;4.63;4.22;;;;;;;17.01;43.91;103842.03;5020150;28;20057;-59
2023/01/24 06:08:41;;;;;;;5.00;4.50;;;;;;;17.06;43.86;103847.13;5019381;28;20030;-58
2023/01/24 06:11:13;;;;;;;5.22;4.38;;;;;;;17.07;43.89;103852.41;5021924;28;20032;-59
2023/01/24 06:13:39;;;;;;;4.88;4.38;;;;;;;17.06;43.85;103852.50;5023024;28;20034;-59
2023/01/24 06:16:07;;;;;;;5.05;4.22;;;;;;;17.06;43.75;103857.88;5024043;28;20048;-59
2023/01/24 06:18:33;;;;;;;4.65;4.25;;;;;;;17.08;43.70;103853.31;5006435;28;20137;-59
2023/01/24 06:21:03;;;;;;;4.80;4.32;;;;;;;17.09;43.62;103865.78;5017433;28;20479;-58
2023/01/24 06:23:29;;;;;;;4.63;4.22;;;;;;;17.08;43.78;103858.69;5018939;28;20034;-59
2023/01/24 06:25:55;;;;;;;4.93;4.53;;;;;;;17.06;43.56;103853.38;5015393;28;20045;-59
2023/01/24 06:28:20;;;;;;;5.47;4.97;;;;;;;17.09;43.80;103857.72;5012108;28;20037;-59
2023/01/24 06:30:52;;;;;;;5.30;4.78;;;;;;;17.08;43.78;103858.69;5006714;28;20030;-59
2023/01/24 06:33:33;;;;;;;4.50;4.10;;;;;;;17.09;43.73;103871.16;5000798;28;20026;-59
2023/01/24 06:36:21;;;;;;;4.72;4.22;;;;;;;17.09;43.63;103872.03;4998107;28;20037;-59
2023/01/24 06:38:46;;;;;;;4.50;4.10;;;;;;;17.09;43.85;103868.47;5000346;28;20025;-59
2023/01/24 06:41:16;;;;;;;5.10;4.60;;;;;;;17.09;43.76;103869.34;5016114;28;20124;-56
2023/01/24 06:43:43;;;;;;;5.45;4.15;;;;;;;17.07;43.51;103868.53;5020840;28;20037;-55
2023/01/24 06:46:10;;;;;;;4.55;4.15;;;;;;;17.08;43.38;103872.13;5015149;28;20517;-57
2023/01/24 06:48:35;;;;;;;5.13;4.63;;;;;;;17.07;43.48;103875.75;5016143;28;20034;-57
2023/01/24 06:51:00;;;;;;;4.68;4.28;;;;;;;17.05;43.37;103875.84;5018511;28;20032;-59
2023/01/24 06:53:26;;;;;;;5.15;4.65;;;;;;;17.06;44.04;103874.88;5008736;28;20077;-57
2023/01/24 06:55:52;;;;;;;5.30;4.80;;;;;;;17.02;43.42;103862.56;5012314;28;20034;-59
2023/01/24 06:58:17;;;;;;;3.92;3.63;;;;;;;17.04;43.28;103860.69;5016768;28;20022;-58
2023/01/24 07:00:42;;;;;;;4.38;3.97;;;;;;;17.05;43.44;103865.09;5017478;28;20065;-58
2023/01/24 07:03:08;;;;;;;4.82;4.32;;;;;;;17.05;43.23;103866.91;5010138;28;20104;-58
2023/01/24 07:05:35;;;;;;;5.07;4.57;;;;;;;17.03;43.21;103866.97;5013067;28;20026;-58
2023/01/24 07:08:01;;;;;;;4.25;3.85;;;;;;;17.05;43.38;103874.97;5018545;28;20022;-58
2023/01/24 07:10:26;;;;;;;5.25;4.75;;;;;;;17.00;43.10;103872.53;5014338;28;20099;-53
2023/01/24 07:12:52;;;;;;;4.97;4.57;;;;;;;17.05;43.28;103874.97;5027700;28;20030;-58
2023/01/24 07:15:17;;;;;;;5.40;4.20;;;;;;;17.05;43.21;103874.97;5028104;28;20032;-58
2023/01/24 07:17:43;;;;;;;4.60;4.20;;;;;;;17.04;43.30;103879.50;5027944;28;20099;-53
2023/01/24 07:20:10;;;;;;;4.45;4.05;;;;;;;17.03;43.06;103895.69;4996477;28;20014;-58
2023/01/24 07:22:37;;;;;;;5.15;4.63;;;;;;;16.99;43.04;103884.22;5003023;28;20518;-58
2023/01/24 07:25:03;;;;;;;4.75;4.30;;;;;;;17.05;43.20;103897.34;5023488;28;20033;-58
2023/01/24 07:27:28;;;;;;;4.53;4.13;;;;;;;17.05;43.25;103896.47;5017796;28;20021;-58
2023/01/24 07:29:53;;;;;;;4.55;4.15;;;;;;;17.04;43.00;103892.94;5013757;28;20113;-58
2023/01/24 07:32:19;;;;;;;4.40;4.00;;;;;;;17.03;42.95;103898.38;5019858;28;20031;-57
2023/01/24 07:34:44;;;;;;;4.75;4.25;;;;;;;17.03;42.92;103901.91;5021121;28;20391;-56
2023/01/24 07:37:09;;;;;;;4.53;4.03;;;;;;;17.11;42.74;103906.88;5013925;28;20098;-58
2023/01/24 07:39:35;;;;;;;4.63;4.03;;;;;;;17.14;42.50;103902.22;5015677;28;20080;-51
2023/01/24 07:42:00;;;;;;;4.30;3.63;;;;;;;17.20;42.40;103906.38;5025240;28;20044;-58
2023/01/24 07:44:25;;;;;;;4.18;3.78;;;;;;;17.20;42.38;103911.75;5027463;28;20030;-57
2023/01/24 07:46:50;;;;;;;6.75;4.50;;;;;;;17.20;42.39;103915.34;5027998;28;20050;-58
2023/01/24 07:49:16;;;;;;;6.38;3.90;;;;;;;17.22;42.21;103920.63;5027608;28;20459;-58
2023/01/24 07:51:42;;;;;;;4.30;3.88;;;;;;;17.22;42.22;103921.50;5027424;28;20108;-56
2023/01/24 07:54:08;;;;;;;4.32;3.92;;;;;;;17.24;42.07;103916.00;5026827;28;20069;-58
2023/01/24 07:56:33;;;;;;;3.78;3.45;;;;;;;17.24;42.02;103922.25;5027350;28;20037;-58
2023/01/24 07:58:59;;;;;;;3.83;3.50;;;;;;;17.25;42.03;103920.47;5027437;28;20022;-58
2023/01/24 08:01:25;;;;;;;4.30;3.90;;;;;;;17.23;41.89;103917.84;5027704;28;20026;-59
2023/01/24 08:03:54;;;;;;;4.32;3.92;;;;;;;17.26;41.87;103921.31;5027212;28;20034;-58
2023/01/24 08:06:19;;;;;;;5.50;3.67;;;;;;;17.25;41.81;103917.78;5027512;28;20030;-59
2023/01/24 08:08:44;;;;;;;4.25;3.88;;;;;;;17.27;42.01;103917.69;5027059;28;20049;-59
2023/01/24 08:11:11;;;;;;;3.80;3.50;;;;;;;17.27;41.88;103918.53;5027355;28;20076;-56
2023/01/24 08:13:36;;;;;;;4.10;3.70;;;;;;;17.26;41.79;103924.88;5026963;28;20030;-58
2023/01/24 08:16:01;;;;;;;5.13;4.63;;;;;;;17.25;41.76;103923.16;5027414;28;20033;-58
2023/01/24 08:18:27;;;;;;;4.15;3.53;;;;;;;17.26;41.64;103929.41;5026999;28;20024;-58
2023/01/24 08:20:56;;;;;;;4.65;3.75;;;;;;;17.24;41.61;103929.47;5026839;28;20060;-58
2023/01/24 08:23:21;;;;;;;5.57;4.30;;;;;;;17.23;41.89;103930.41;5025545;28;20491;-58
2023/01/24 08:25:47;;;;;;;4.55;3.78;;;;;;;17.22;41.60;103926.00;5018108;28;20037;-59
2023/01/24 08:28:12;;;;;;;6.55;4.03;;;;;;;17.17;41.91;103922.69;5024586;28;20041;-59
2023/01/24 08:30:37;;;;;;;4.55;3.70;;;;;;;17.21;42.03;103935.88;5026926;28;20029;-56
2023/01/24 08:33:04;;;;;;;4.50;3.92;;;;;;;17.18;41.93;103927.13;5026861;28;20033;-56
2023/01/24 08:35:30;;;;;;;4.28;3.88;;;;;;;17.18;42.00;103938.75;5026650;28;20032;-59
2023/01/24 08:37:56;;;;;;;4.45;3.85;;;;;;;17.19;42.23;103944.97;5026808;28;20057;-57
2023/01/24 08:40:21;;;;;;;4.68;4.07;;;;;;;17.17;42.16;103939.69;5023684;28;20041;-58
2023/01/24 08:42:46;;;;;;;4.10;3.70;;;;;;;17.15;42.16;103941.59;5025949;28;20085;-56
2023/01/24 08:45:11;;;;;;;4.07;3.42;;;;;;;17.16;42.25;103943.34;5026332;28;20431;-59
2023/01/24 08:47:37;;;;;;;4.63;4.20;;;;;;;17.16;42.26;103942.44;5024257;28;20026;-55
2023/01/24 08:50:02;;;;;;;5.13;3.92;;;;;;;17.17;42.24;103944.22;5026259;28;20441;-57
2023/01/24 08:52:28;;;;;;;4.82;4.22;;;;;;;17.17;42.13;103947.75;5026046;28;20033;-58
2023/01/24 08:54:53;;;;;;;4.53;4.03;;;;;;;17.17;42.08;103950.44;5026167;28;20025;-57
2023/01/24 08:57:18;;;;;;;5.07;4.55;;;;;;;17.17;42.18;103969.28;5026154;28;20469;-58
2023/01/24 08:59:44;;;;;;;5.10;4.60;;;;;;;17.17;42.06;103963.03;5026187;28;20050;-57
2023/01/24 09:02:14;;;;;;;5.10;4.43;;;;;;;17.17;42.11;103963.91;5026280;28;20041;-59
2023/01/24 09:04:42;;;;;;;6.20;5.60;;;;;;;17.17;41.98;103961.22;5025999;28;20085;-58
2023/01/24 09:07:07;;;;;;;5.55;4.78;;;;;;;17.15;42.09;103962.22;5025698;28;20140;-54
2023/01/24 09:09:32;;;;;;;5.43;4.93;;;;;;;17.17;42.20;103963.91;5025297;28;20029;-58
2023/01/24 09:11:57;;;;;;;6.03;4.60;;;;;;;17.17;42.13;103958.53;5026071;28;20029;-59
2023/01/24 09:14:23;;;;;;;6.47;5.30;;;;;;;17.19;41.76;103959.28;5026221;28;20029;-57
2023/01/24 09:16:48;;;;;;;7.03;5.00;;;;;;;17.20;41.89;103960.16;5026025;28;20045;-55
2023/01/24 09:19:13;;;;;;;6.28;5.15;;;;;;;17.18;41.98;103968.31;5025650;28;20030;-51
2023/01/24 09:21:38;;;;;;;5.47;4.50;;;;;;;17.20;41.89;103974.50;5024759;28;20066;-53
2023/01/24 09:24:04;;;;;;;7.22;5.05;;;;;;;17.21;41.92;103970.84;5025596;28;20375;-55
2023/01/24 09:26:29;;;;;;;7.40;5.32;;;;;;;17.20;42.21;103971.81;5024892;28;20026;-54
2023/01/24 09:28:57;;;;;;;6.78;5.18;;;;;;;17.20;42.12;103969.13;5025265;28;20053;-50
2023/01/24 09:31:23;;;;;;;9.27;5.35;;;;;;;17.23;42.20;103970.75;5024765;28;20159;-54
2023/01/24 09:33:48;;;;;;;7.15;5.95;;;;;;;17.23;42.35;103976.13;5021494;28;20414;-55
2023/01/24 09:36:13;;;;;;;7.90;5.60;;;;;;;17.22;42.44;103977.09;5025276;28;20086;-54
2023/01/24 09:38:38;;;;;;;6.15;5.18;;;;;;;17.22;42.45;103979.78;5025108;28;20426;-55
2023/01/24 09:41:33;;;;;;;6.45;5.30;;;;;;;17.21;42.75;103978.91;5022213;28;20050;-52
2023/01/24 09:44:00;;;;;;;5.95;5.32;;;;;;;17.22;42.57;103974.41;4960551;29;20047;-57
2023/01/24 09:46:51;;;;;;;6.30;5.20;;;;;;;17.21;42.46;103983.44;4937185;29;20116;-55
2023/01/24 09:49:40;;;;;;;5.88;4.85;;;;;;;17.22;42.41;103982.47;4963838;29;20031;-55
2023/01/24 09:52:11;;;;;;;5.97;4.90;;;;;;;17.19;42.24;103980.81;4954769;29;20083;-53
2023/01/24 09:55:00;;;;;;;6.22;5.63;;;;;;;17.23;42.47;103984.19;4955912;29;20046;-56
2023/01/24 09:57:26;;;;;;;;;;;;;;;17.24;42.38;103985.94;4948536;29;20488;-54
2023/01/24 09:59:56;;;;;;;7.38;5.60;;;;;;;17.24;42.42;103989.47;4947848;29;19934;-55
2023/01/24 10:02:21;;;;;;;;;;;;;;;17.26;42.21;103980.50;4956074;29;20031;-53
2023/01/24 10:04:47;;;;;;;8.43;5.65;;;;;;;17.26;42.04;103980.50;4947682;29;20005;-55
2023/01/24 10:07:25;;;;;;;5.25;4.70;;;;;;;17.24;42.05;103978.72;4940028;29;20067;-55
2023/01/24 10:10:05;;;;;;;7.05;5.05;;;;;;;17.26;42.23;103984.03;4959269;29;20023;-50
2023/01/24 10:12:42;;;;;;;5.43;4.75;;;;;;;17.25;42.20;103985.00;4956411;29;20227;-53
2023/01/24 10:15:13;;;;;;;5.88;5.13;;;;;;;17.25;42.13;103979.63;4964281;29;20023;-55
2023/01/24 10:18:00;;;;;;;6.10;5.15;;;;;;;17.27;41.95;103971.47;4963907;29;20046;-54
2023/01/24 10:20:55;;;;;;;5.80;5.05;;;;;;;17.28;42.11;103975.88;4990375;28;20029;-56
2023/01/24 10:23:24;;;;;;;6.03;5.20;;;;;;;17.29;41.98;103985.69;5022050;28;20065;-49
2023/01/24 10:25:54;;;;;;;5.22;4.72;;;;;;;17.29;42.18;103986.56;5022247;28;20080;-55
2023/01/24 10:28:23;;;;;;;5.95;5.10;;;;;;;17.30;42.15;103979.38;5006516;28;20025;-54
2023/01/24 10:30:57;;;;;;;6.38;4.88;;;;;;;17.30;42.14;103979.38;5024642;28;20116;-54
2023/01/24 10:33:29;;;;;;;8.18;5.32;;;;;;;17.30;42.09;103976.69;5017976;28;20032;-53
2023/01/24 10:35:57;;;;;;;5.60;4.85;;;;;;;17.30;42.11;103979.38;5003306;28;20025;-55
2023/01/24 10:38:23;;;;;;;6.00;5.20;;;;;;;17.21;41.91;103960.09;5020558;28;20025;-54
2023/01/24 10:40:59;;;;;;;5.45;4.85;;;;;;;17.24;41.82;103959.03;5020111;28;20054;-56
2023/01/24 10:43:26;;;;;;;5.53;4.95;;;;;;;17.34;41.95;103967.50;5003990;28;20527;-55
2023/01/24 10:45:54;;;;;;;5.32;4.68;;;;;;;17.33;41.76;103969.31;4996592;28;20030;-55
2023/01/24 10:48:43;;;;;;;5.60;4.70;;;;;;;17.33;41.71;103977.38;5019676;28;20022;-54
2023/01/24 10:51:11;;;;;;;6.85;5.15;;;;;;;17.33;41.76;103965.72;5009625;28;20109;-54
2023/01/24 10:53:36;;;;;;;5.60;4.90;;;;;;;17.32;41.73;103962.19;5027112;28;20025;-53
2023/01/24 10:56:03;;;;;;;5.30;4.50;;;;;;;17.33;41.74;103960.34;5022737;28;20026;-53
2023/01/24 10:58:39;;;;;;;5.20;4.68;;;;;;;17.33;41.85;103958.56;5025116;28;20021;-54
2023/01/24 11:01:06;;;;;;;6.28;4.97;;;;;;;17.33;41.43;103953.19;5008799;28;20033;-52
2023/01/24 11:03:34;;;;;;;5.65;4.97;;;;;;;17.35;42.01;103950.41;5020780;28;20040;-56
2023/01/24 11:06:01;;;;;;;7.05;4.60;;;;;;;17.33;42.18;103947.81;5021526;28;20094;-54
2023/01/24 11:08:35;;;;;;;5.43;4.80;;;;;;;17.34;42.18;103941.47;5012565;28;20036;-51
2023/01/24 11:11:01;;;;;;;4.60;4.13;;;;;;;17.35;42.21;103945.03;5022292;28;20026;-56
2023/01/24 11:13:34;;;;;;;6.32;4.35;;;;;;;17.36;42.43;103942.22;5021539;28;20034;-54
2023/01/24 11:16:21;;;;;;;5.07;4.50;;;;;;;17.36;42.30;103938.69;5004940;28;20494;-53
2023/01/24 11:18:48;;;;;;;4.63;4.05;;;;;;;17.37;42.20;103940.41;5017146;28;20026;-56
2023/01/24 11:21:16;;;;;;;5.97;4.38;;;;;;;17.37;42.23;103935.03;4999735;28;20080;-56
2023/01/24 11:23:42;;;;;;;6.00;4.60;;;;;;;17.37;42.29;103935.91;5017265;28;20544;-57
2023/01/24 11:26:27;;;;;;;6.18;4.68;;;;;;;17.36;42.46;103931.47;5023289;28;20075;-58
2023/01/24 11:29:00;;;;;;;4.70;4.22;;;;;;;17.38;42.35;103928.72;5021138;28;20025;-60
2023/01/24 11:31:28;;;;;;;6.85;4.88;;;;;;;17.37;42.04;103925.13;5013299;28;20144;-59
2023/01/24 11:34:27;;;;;;;6.32;4.00;;;;;;;17.41;42.17;103923.16;5017150;28;20085;-59
2023/01/24 11:37:11;;;;;;;;;;;;;;;17.41;42.06;103926.69;5024108;28;20038;-59
2023/01/24 11:40:04;;;;;;;5.72;4.40;;;;;;;17.41;41.88;103924.00;5019369;28;19975;-59
2023/01/24 11:43:09;;;;;;;5.38;4.07;;;;;;;17.42;41.79;103927.59;5018679;28;20037;-59
2023/01/24 11:45:45;;;;;;;4.95;4.10;;;;;;;17.41;41.75;103915.94;5024746;28;20036;-57
2023/01/24 11:48:16;;;;;;;5.20;4.32;;;;;;;17.40;41.61;103919.59;5008893;28;20029;-59
2023/01/24 11:50:54;;;;;;;5.45;4.53;;;;;;;17.33;41.97;103901.19;5005783;28;20168;-60
2023/01/24 11:53:45;;;;;;;5.93;3.80;;;;;;;17.42;41.69;103908.78;5007230;28;20087;-57
2023/01/24 11:56:23;;;;;;;4.78;3.83;;;;;;;17.42;41.57;103906.94;5023854;28;20022;-56
2023/01/24 11:59:00;;;;;;;5.10;4.38;;;;;;;17.43;41.50;103905.13;5005976;28;20475;-60
2023/01/24 12:01:33;;;;;;;5.10;4.60;;;;;;;17.42;41.41;103898.00;5021073;28;20101;-59
2023/01/24 12:04:28;;;;;;;4.68;4.15;;;;;;;17.42;41.39;103898.00;5024460;28;20036;-53
2023/01/24 12:07:22;;;;;;;4.25;3.45;;;;;;;17.43;41.42;103902.44;4927451;29;20090;-56